Time;durP1;ratioP1;P1;durP2;ratioP2;P2;SDS_P1;SDS_P2;PMS_P1;PMS_P2;Temp;Humidity;BMP_temperature;BMP_pressure;BME280_temperature;BME280_humidity;BME280_pressure;Samples;Min_cycle;Max_cycle;Signal;HPM_P1;HPM_P2
2021/08/07 00:01:47;;;;;;;4.50;2.10;;;;;;;15.89;100.00;99659.38;5279409;28;20027;-78
2021/08/07 00:04:17;;;;;;;9.98;2.60;;;;;;;15.84;100.00;99663.31;5287531;28;20027;-78
2021/08/07 00:06:48;;;;;;;14.65;2.63;;;;;;;15.77;100.00;99659.44;5289801;28;20393;-78
2021/08/07 00:09:18;;;;;;;7.25;2.10;;;;;;;15.77;100.00;99657.66;5283071;27;20023;-78
2021/08/07 00:11:49;;;;;;;9.20;2.60;;;;;;;15.64;100.00;99662.09;5282796;28;20314;-78
2021/08/07 00:14:19;;;;;;;16.67;2.45;;;;;;;15.59;100.00;99661.59;5285266;28;20027;-78
2021/08/07 00:16:49;;;;;;;9.57;2.67;;;;;;;15.61;100.00;99662.31;5285682;28;20257;-78
2021/08/07 00:19:19;;;;;;;6.60;2.17;;;;;;;15.62;100.00;99658.72;5286080;28;20400;-78
2021/08/07 00:21:50;;;;;;;9.20;2.50;;;;;;;15.37;100.00;99669.28;5282685;28;20047;-78
2021/08/07 00:24:20;;;;;;;12.23;2.47;;;;;;;15.39;100.00;99670.00;5288883;28;20412;-78
2021/08/07 00:26:50;;;;;;;9.25;2.45;;;;;;;15.33;100.00;99662.53;5288915;27;20197;-79
2021/08/07 00:29:20;;;;;;;8.35;2.55;;;;;;;15.13;100.00;99663.03;5291146;27;20087;-78
2021/08/07 00:31:51;;;;;;;7.22;2.35;;;;;;;15.17;100.00;99661.88;5282241;27;20478;-78
2021/08/07 00:34:21;;;;;;;8.98;2.05;;;;;;;15.28;100.00;99662.00;5282211;27;20103;-78
2021/08/07 00:36:51;;;;;;;11.07;2.33;;;;;;;15.23;100.00;99665.88;5291304;27;20573;-78
2021/08/07 00:39:22;;;;;;;13.40;2.50;;;;;;;15.09;100.00;99666.84;5294350;27;20659;-78
2021/08/07 00:41:52;;;;;;;7.22;2.05;;;;;;;15.19;100.00;99662.63;5293701;27;20050;-78
2021/08/07 00:44:22;;;;;;;15.38;2.72;;;;;;;15.22;100.00;99665.03;5291325;27;20526;-78
2021/08/07 00:46:52;;;;;;;8.15;2.28;;;;;;;15.18;100.00;99668.81;5291648;27;20042;-78
2021/08/07 00:49:23;;;;;;;9.90;2.60;;;;;;;15.22;100.00;99670.28;5291035;27;20071;-78
2021/08/07 00:51:53;;;;;;;10.57;2.92;;;;;;;15.23;100.00;99682.53;5287907;27;20027;-78
2021/08/07 00:54:23;;;;;;;11.43;2.40;;;;;;;15.15;100.00;99682.22;5295825;27;20047;-78
2021/08/07 00:56:54;;;;;;;17.75;2.63;;;;;;;14.74;100.00;99679.84;5286963;28;20024;-78
2021/08/07 00:59:24;;;;;;;14.73;2.75;;;;;;;14.70;100.00;99673.09;5293479;27;20189;-78
2021/08/07 01:01:58;;;;;;;15.82;2.92;;;;;;;14.59;100.00;99667.72;5297406;27;20070;-78
2021/08/07 01:04:34;;;;;;;11.85;2.30;;;;;;;14.58;100.00;99663.41;5298399;27;20027;-78
2021/08/07 01:07:13;;;;;;;11.00;2.53;;;;;;;14.46;100.00;99658.94;5295476;27;20709;-78
2021/08/07 01:10:18;;;;;;;16.38;2.90;;;;;;;14.52;100.00;99653.28;5291584;27;20524;-78
2021/08/07 01:13:11;;;;;;;12.18;2.58;;;;;;;14.42;100.00;99658.28;5296203;27;20433;-78
2021/08/07 01:15:46;;;;;;;12.10;2.35;;;;;;;14.51;100.00;99656.84;5298623;27;20031;-78
2021/08/07 01:18:20;;;;;;;8.15;2.65;;;;;;;14.40;100.00;99660.19;5293306;27;20027;-78
2021/08/07 01:20:53;;;;;;;10.35;2.50;;;;;;;14.51;100.00;99659.47;5296000;27;20038;-78
2021/08/07 01:23:50;;;;;;;5.10;2.28;;;;;;;14.67;100.00;99652.25;5298139;27;20026;-78
2021/08/07 01:26:42;;;;;;;5.07;2.35;;;;;;;14.63;100.00;99651.59;5295664;27;20023;-78
2021/08/07 01:29:14;;;;;;;14.00;2.63;;;;;;;14.46;100.00;99664.19;5300072;27;20019;-78
2021/08/07 01:31:46;;;;;;;8.52;2.65;;;;;;;14.65;100.00;99667.28;5292556;27;20536;-78
2021/08/07 01:34:17;;;;;;;12.90;2.75;;;;;;;14.56;100.00;99666.13;5300141;27;20098;-78
2021/08/07 01:36:48;;;;;;;9.65;2.92;;;;;;;14.69;100.00;99666.13;5296624;27;20058;-78
2021/08/07 01:39:18;;;;;;;9.25;2.80;;;;;;;14.57;100.00;99661.72;5300191;27;20313;-78
2021/08/07 01:41:49;;;;;;;13.27;2.78;;;;;;;14.49;100.00;99669.25;5296898;27;20529;-78
2021/08/07 01:44:19;;;;;;;8.02;2.35;;;;;;;14.61;100.00;99673.72;5292946;27;20030;-79
2021/08/07 01:47:02;;;;;;;4.57;2.45;;;;;;;14.76;100.00;99672.69;5300040;27;20100;-78
2021/08/07 01:49:47;;;;;;;11.55;2.40;;;;;;;14.71;100.00;99673.00;5298531;27;20359;-78
2021/08/07 01:52:24;;;;;;;7.18;2.55;;;;;;;14.65;100.00;99664.66;5290029;27;20478;-78
2021/08/07 01:55:02;;;;;;;9.93;2.50;;;;;;;14.58;100.00;99669.50;5293784;27;20466;-78
2021/08/07 01:57:40;;;;;;;9.77;2.33;;;;;;;14.69;100.00;99663.50;5287176;27;20130;-78
2021/08/07 02:00:13;;;;;;;5.65;2.30;;;;;;;14.65;100.00;99670.78;5293121;27;20558;-78
2021/08/07 02:02:44;;;;;;;8.70;2.65;;;;;;;14.66;100.00;99669.84;5289726;27;20326;-78
2021/08/07 02:05:18;;;;;;;4.30;2.00;;;;;;;14.63;100.00;99663.94;5297237;27;20504;-78
2021/08/07 02:07:50;;;;;;;6.32;2.40;;;;;;;14.61;100.00;99664.03;5292958;27;20069;-78
2021/08/07 02:10:21;;;;;;;5.03;2.08;;;;;;;14.71;100.00;99665.09;5295511;27;20114;-79
2021/08/07 02:12:52;;;;;;;6.18;2.10;;;;;;;14.72;100.00;99663.31;5293712;27;20126;-78
2021/08/07 02:15:22;;;;;;;7.53;2.53;;;;;;;14.70;100.00;99655.53;5298033;27;20046;-78
2021/08/07 02:17:53;;;;;;;7.68;1.90;;;;;;;14.72;100.00;99661.53;5297219;27;20019;-79
2021/08/07 02:20:24;;;;;;;9.23;2.30;;;;;;;14.58;100.00;99658.16;5294726;27;20024;-78
2021/08/07 02:22:54;;;;;;;8.90;2.83;;;;;;;14.54;100.00;99656.63;5297725;27;20028;-79
2021/08/07 02:25:25;;;;;;;9.45;2.50;;;;;;;14.51;100.00;99648.97;5288413;27;20023;-79
2021/08/07 02:27:56;;;;;;;10.45;2.22;;;;;;;14.46;100.00;99645.78;5289283;27;20110;-78
2021/08/07 02:30:28;;;;;;;8.80;2.28;;;;;;;14.52;100.00;99640.97;5296610;27;20023;-79
2021/08/07 02:32:59;;;;;;;7.93;2.40;;;;;;;14.44;100.00;99642.44;5295779;27;20031;-78
2021/08/07 02:35:29;;;;;;;7.90;2.10;;;;;;;14.29;100.00;99638.19;5294910;27;20276;-78
2021/08/07 02:38:00;;;;;;;7.57;2.45;;;;;;;14.18;100.00;99635.41;5294992;27;20058;-79
2021/08/07 02:40:32;;;;;;;8.60;2.65;;;;;;;14.10;100.00;99637.66;5296330;27;20029;-79
2021/08/07 02:43:04;;;;;;;8.25;2.30;;;;;;;13.87;100.00;99646.16;5299346;27;20475;-79
2021/08/07 02:45:35;;;;;;;7.07;2.40;;;;;;;13.93;100.00;99636.09;5299568;27;20131;-78
2021/08/07 02:48:05;;;;;;;8.95;2.60;;;;;;;13.98;100.00;99628.78;5298066;27;20027;-78
2021/08/07 02:50:38;;;;;;;9.50;2.53;;;;;;;13.95;100.00;99626.34;5295989;27;20276;-79
2021/08/07 02:53:10;;;;;;;11.38;2.67;;;;;;;13.62;100.00;99633.75;5292319;27;20585;-79
2021/08/07 02:55:41;;;;;;;7.47;2.33;;;;;;;13.66;100.00;99631.75;5288567;27;20114;-79
2021/08/07 02:58:12;;;;;;;13.55;2.90;;;;;;;13.67;100.00;99630.81;5297487;27;20129;-79
2021/08/07 03:00:43;;;;;;;10.63;2.58;;;;;;;13.62;100.00;99627.66;5292051;27;20253;-79
2021/08/07 03:03:13;;;;;;;9.50;2.33;;;;;;;13.51;100.00;99635.34;5287576;27;20398;-79
2021/08/07 03:05:43;;;;;;;9.60;2.47;;;;;;;13.46;100.00;99640.03;5296159;27;20388;-78
2021/08/07 03:08:14;;;;;;;9.63;2.42;;;;;;;13.47;100.00;99636.47;5292673;27;20023;-79
2021/08/07 03:10:44;;;;;;;5.55;2.17;;;;;;;13.61;100.00;99636.47;5297311;27;20511;-79
2021/08/07 03:13:14;;;;;;;9.88;2.70;;;;;;;13.49;100.00;99634.59;5290794;27;20023;-79
2021/08/07 03:15:45;;;;;;;10.00;2.38;;;;;;;13.53;100.00;99636.09;5296772;28;20023;-79
2021/08/07 03:18:15;;;;;;;7.03;2.33;;;;;;;13.52;100.00;99637.88;5293650;27;20039;-79
2021/08/07 03:20:45;;;;;;;12.38;2.50;;;;;;;13.69;100.00;99632.41;5296819;27;20055;-79
2021/08/07 03:23:16;;;;;;;8.63;2.40;;;;;;;13.67;100.00;99646.56;5291697;28;20068;-79
2021/08/07 03:25:46;;;;;;;6.90;2.05;;;;;;;13.88;100.00;99645.25;5292566;28;20043;-79
2021/08/07 03:28:16;;;;;;;5.67;1.93;;;;;;;13.95;100.00;99641.25;5293563;28;20017;-79
2021/08/07 03:30:46;;;;;;;9.15;2.00;;;;;;;13.71;100.00;99650.72;5294746;27;20273;-79
2021/08/07 03:33:17;;;;;;;7.55;2.13;;;;;;;13.80;100.00;99650.13;5297763;28;20234;-78
2021/08/07 03:35:47;;;;;;;7.15;2.20;;;;;;;13.88;100.00;99645.25;5293720;27;20416;-79
2021/08/07 03:38:18;;;;;;;9.73;2.40;;;;;;;13.91;100.00;99658.19;5297627;27;20027;-78
2021/08/07 03:40:48;;;;;;;9.43;2.33;;;;;;;14.01;100.00;99648.75;5295303;28;20389;-78
2021/08/07 03:43:18;;;;;;;8.82;2.15;;;;;;;13.95;100.00;99657.03;5296000;28;20019;-79
2021/08/07 03:45:49;;;;;;;8.60;2.28;;;;;;;14.12;100.00;99662.03;5284968;27;20035;-79
2021/08/07 03:48:19;;;;;;;8.68;2.50;;;;;;;14.07;100.00;99653.63;5292390;28;20019;-79
2021/08/07 03:50:49;;;;;;;7.07;2.33;;;;;;;14.05;100.00;99658.97;5295971;27;20028;-79
2021/08/07 03:53:20;;;;;;;6.35;2.13;;;;;;;14.06;100.00;99654.56;5292800;27;20055;-78
2021/08/07 03:55:50;;;;;;;12.00;2.50;;;;;;;14.00;100.00;99649.69;5294733;28;20051;-78
2021/08/07 03:58:20;;;;;;;8.93;2.35;;;;;;;14.14;100.00;99661.03;5294953;28;20344;-78
2021/08/07 04:00:51;;;;;;;13.88;2.53;;;;;;;14.10;100.00;99658.69;5292882;27;20039;-79
2021/08/07 04:03:21;;;;;;;8.82;2.05;;;;;;;14.25;100.00;99649.84;5297575;27;20106;-79
2021/08/07 04:05:51;;;;;;;10.07;2.22;;;;;;;14.22;100.00;99647.41;5299811;27;20019;-79
2021/08/07 04:08:22;;;;;;;8.43;2.00;;;;;;;14.31;100.00;99650.28;5295258;27;20084;-79
2021/08/07 04:10:52;;;;;;;10.90;2.42;;;;;;;14.31;100.00;99647.66;5300624;27;20015;-78
2021/08/07 04:13:22;;;;;;;9.60;2.50;;;;;;;14.27;100.00;99647.94;5295860;27;20023;-78
2021/08/07 04:15:53;;;;;;;7.82;2.22;;;;;;;14.35;100.00;99640.38;5300604;27;20034;-78
2021/08/07 04:18:23;;;;;;;10.48;2.25;;;;;;;14.23;100.00;99634.16;5288337;28;20055;-78
2021/08/07 04:20:54;;;;;;;13.02;2.30;;;;;;;14.27;100.00;99629.56;5295626;27;20114;-79
2021/08/07 04:23:25;;;;;;;9.48;2.20;;;;;;;14.49;100.00;99635.06;5296820;27;20027;-79
2021/08/07 04:25:55;;;;;;;9.63;2.22;;;;;;;14.46;100.00;99630.03;5287678;27;20085;-79
2021/08/07 04:28:25;;;;;;;8.82;2.10;;;;;;;14.57;100.00;99631.00;5296623;27;20023;-79
2021/08/07 04:30:56;;;;;;;8.75;2.13;;;;;;;14.79;100.00;99635.66;5295989;27;20028;-79
2021/08/07 04:33:26;;;;;;;11.27;2.20;;;;;;;14.74;100.00;99637.75;5299504;27;20102;-79
2021/08/07 04:35:56;;;;;;;11.73;2.40;;;;;;;14.72;100.00;99626.47;5297874;27;20035;-79
2021/08/07 04:38:27;;;;;;;6.28;2.15;;;;;;;14.83;100.00;99623.03;5297657;27;20020;-78
2021/08/07 04:40:57;;;;;;;8.23;2.30;;;;;;;14.91;100.00;99628.63;5297459;27;20118;-78
2021/08/07 04:43:29;;;;;;;8.85;2.45;;;;;;;14.93;100.00;99628.50;5299659;27;20529;-78
2021/08/07 04:45:59;;;;;;;6.78;1.92;;;;;;;14.96;100.00;99626.50;5287589;27;20073;-78
2021/08/07 04:48:30;;;;;;;7.32;1.85;;;;;;;15.15;100.00;99623.47;5286636;27;20027;-78
2021/08/07 04:51:00;;;;;;;9.38;2.00;;;;;;;15.31;100.00;99632.84;5294692;27;20095;-78
2021/08/07 04:53:30;;;;;;;9.82;1.85;;;;;;;15.95;100.00;99632.59;5280796;27;20027;-78
2021/08/07 04:56:01;;;;;;;9.20;1.70;;;;;;;16.53;100.00;99637.13;5287140;27;20138;-78
2021/08/07 04:58:31;;;;;;;4.20;1.42;;;;;;;16.79;97.86;99636.84;5293336;27;20436;-78
2021/08/07 05:01:01;;;;;;;8.17;1.70;;;;;;;15.85;100.00;99643.94;5295406;27;20489;-79
2021/08/07 05:03:31;;;;;;;6.45;1.50;;;;;;;17.00;100.00;99636.03;5297443;27;20284;-79
2021/08/07 05:06:02;;;;;;;6.50;1.48;;;;;;;17.63;96.65;99633.69;5295734;27;20118;-79
2021/08/07 05:08:35;;;;;;;5.72;1.40;;;;;;;18.96;88.69;99633.13;5297203;27;20450;-79
2021/08/07 05:11:06;;;;;;;3.25;1.10;;;;;;;20.67;87.86;99631.91;5296528;27;20047;-79
2021/08/07 05:13:36;;;;;;;4.10;1.10;;;;;;;21.56;80.48;99628.78;5297991;27;20116;-79
2021/08/07 05:16:06;;;;;;;6.18;1.45;;;;;;;22.96;75.35;99621.78;5298208;27;20302;-79
2021/08/07 05:18:37;;;;;;;5.43;1.10;;;;;;;23.95;71.67;99625.59;5300936;27;20207;-79
2021/08/07 05:21:07;;;;;;;4.63;0.77;;;;;;;24.69;70.19;99623.75;5298247;27;20042;-79
2021/08/07 05:23:37;;;;;;;3.13;0.90;;;;;;;25.26;70.84;99628.06;5299991;27;20140;-79
2021/08/07 05:26:08;;;;;;;4.33;1.00;;;;;;;24.92;70.42;99627.41;5289696;27;20048;-79
2021/08/07 05:28:38;;;;;;;3.95;1.10;;;;;;;24.19;72.97;99630.16;5296455;27;20269;-80
2021/08/07 05:31:08;;;;;;;1.35;0.65;;;;;;;25.49;69.23;99627.19;5300967;27;20045;-80
2021/08/07 05:33:38;;;;;;;4.43;1.00;;;;;;;26.31;66.27;99621.34;5304259;27;20102;-79
2021/08/07 05:36:09;;;;;;;4.25;0.80;;;;;;;26.13;65.77;99620.75;5300655;27;20289;-80
2021/08/07 05:38:39;;;;;;;2.63;0.70;;;;;;;25.45;68.85;99630.41;5305826;27;20373;-78
2021/08/07 05:41:09;;;;;;;2.53;0.60;;;;;;;26.46;66.63;99622.22;5299900;27;20033;-78
2021/08/07 05:43:40;;;;;;;2.60;0.70;;;;;;;27.18;67.16;99620.66;5304204;27;20122;-77
2021/08/07 05:46:10;;;;;;;3.27;0.77;;;;;;;28.21;64.62;99611.56;5301105;27;20635;-78
2021/08/07 05:48:40;;;;;;;3.53;1.00;;;;;;;27.17;64.79;99629.75;5306278;27;20049;-77
2021/08/07 05:51:11;;;;;;;3.83;0.90;;;;;;;24.79;71.49;99632.44;5302364;27;20423;-79
2021/08/07 05:53:41;;;;;;;3.33;0.70;;;;;;;27.36;66.26;99629.22;5305173;27;20045;-80
2021/08/07 05:56:11;;;;;;;3.70;0.80;;;;;;;27.09;67.04;99627.09;5291899;28;20296;-80
2021/08/07 05:58:41;;;;;;;0.97;0.60;;;;;;;26.57;68.85;99627.19;5302056;27;20128;-79
2021/08/07 06:01:12;;;;;;;3.27;0.70;;;;;;;27.74;63.03;99627.28;5298747;27;20297;-79
2021/08/07 06:03:42;;;;;;;3.60;0.60;;;;;;;26.88;66.07;99635.00;5304537;27;20303;-80
2021/08/07 06:06:12;;;;;;;1.57;0.70;;;;;;;27.29;64.80;99622.06;5290961;27;20107;-78
2021/08/07 06:08:43;;;;;;;3.23;0.63;;;;;;;26.75;67.62;99634.75;5290172;27;20026;-77
2021/08/07 06:11:13;;;;;;;3.23;0.63;;;;;;;28.01;62.93;99624.78;5304141;27;20265;-79
2021/08/07 06:13:44;;;;;;;1.45;0.65;;;;;;;25.86;68.76;99629.25;5297065;27;20270;-79
2021/08/07 06:16:14;;;;;;;4.57;0.75;;;;;;;24.10;76.40;99637.31;5302781;27;20023;-79
2021/08/07 06:18:46;;;;;;;2.03;0.80;;;;;;;25.54;70.96;99624.84;5301433;27;20031;-78
2021/08/07 06:21:16;;;;;;;1.80;0.70;;;;;;;26.41;67.82;99620.09;5294669;27;20581;-79
2021/08/07 06:23:47;;;;;;;3.65;0.75;;;;;;;26.79;65.52;99625.34;5287175;27;20027;-79
2021/08/07 06:26:17;;;;;;;3.75;0.82;;;;;;;25.53;69.31;99619.66;5286222;28;20102;-79
2021/08/07 06:28:47;;;;;;;6.97;0.85;;;;;;;25.41;69.08;99618.34;5285491;27;20023;-79
2021/08/07 06:31:18;;;;;;;1.95;0.70;;;;;;;25.15;70.53;99620.38;5287713;27;20015;-79
2021/08/07 06:33:49;;;;;;;4.10;0.90;;;;;;;24.24;75.65;99619.81;5288849;27;20057;-79
2021/08/07 06:36:20;;;;;;;1.50;0.60;;;;;;;23.92;75.55;99620.56;5298662;27;20019;-79
2021/08/07 06:38:50;;;;;;;6.38;0.82;;;;;;;24.29;73.78;99622.81;5296288;27;20034;-79
2021/08/07 06:41:21;;;;;;;3.88;0.70;;;;;;;23.95;73.64;99620.25;5298996;27;20113;-79
2021/08/07 06:43:51;;;;;;;2.80;0.80;;;;;;;23.79;74.78;99629.97;5297727;27;20126;-78
2021/08/07 06:46:21;;;;;;;3.70;0.70;;;;;;;24.94;70.76;99620.09;5298194;27;20506;-78
2021/08/07 06:48:52;;;;;;;5.55;0.80;;;;;;;23.66;74.88;99617.09;5298787;27;20260;-79
2021/08/07 06:51:22;;;;;;;4.60;0.73;;;;;;;24.49;73.30;99619.69;5297374;27;20027;-78
2021/08/07 06:53:52;;;;;;;2.65;0.80;;;;;;;24.65;72.68;99625.09;5295603;27;20269;-78
2021/08/07 06:56:22;;;;;;;2.75;0.70;;;;;;;25.46;70.21;99627.53;5289444;27;20023;-78
2021/08/07 06:58:53;;;;;;;2.47;0.70;;;;;;;26.65;66.15;99616.44;5300526;27;20030;-78
2021/08/07 07:01:23;;;;;;;1.90;0.53;;;;;;;26.56;68.44;99617.50;5297565;27;20034;-79
2021/08/07 07:03:53;;;;;;;2.97;0.70;;;;;;;25.36;68.41;99623.38;5298895;27;20501;-79
2021/08/07 07:06:24;;;;;;;3.10;0.70;;;;;;;26.06;67.72;99619.78;5300738;27;20375;-79
2021/08/07 07:08:54;;;;;;;2.50;0.70;;;;;;;26.71;66.65;99610.34;5298351;27;20023;-79
2021/08/07 07:11:24;;;;;;;3.73;0.60;;;;;;;28.36;61.00;99618.59;5289808;27;20197;-79
2021/08/07 07:13:54;;;;;;;3.23;0.60;;;;;;;28.85;60.30;99600.63;5297300;27;20020;-79
2021/08/07 07:16:25;;;;;;;4.17;0.60;;;;;;;28.72;61.01;99608.63;5291234;27;20032;-79
2021/08/07 07:18:55;;;;;;;2.22;0.68;;;;;;;29.47;60.04;99601.59;5298132;27;20019;-78
2021/08/07 07:21:26;;;;;;;2.38;0.80;;;;;;;28.33;60.68;99608.19;5297266;27;20063;-78
2021/08/07 07:23:56;;;;;;;2.63;0.77;;;;;;;28.45;61.80;99612.06;5296537;27;20038;-78
2021/08/07 07:26:28;;;;;;;1.70;0.70;;;;;;;26.99;65.91;99618.47;5293997;28;20209;-79
2021/08/07 07:28:58;;;;;;;3.45;0.75;;;;;;;27.33;62.63;99608.09;5289043;28;20628;-78
2021/08/07 07:31:29;;;;;;;3.67;0.70;;;;;;;24.93;73.08;99618.38;5293392;27;20122;-78
2021/08/07 07:33:59;;;;;;;2.50;0.80;;;;;;;25.57;68.97;99608.44;5293354;28;20396;-77
2021/08/07 07:36:29;;;;;;;1.77;0.82;;;;;;;24.84;72.06;99622.06;5297785;27;20027;-77
2021/08/07 07:39:00;;;;;;;3.22;0.70;;;;;;;25.22;70.64;99621.41;5297217;27;20055;-78
2021/08/07 07:41:31;;;;;;;2.93;0.70;;;;;;;24.38;71.29;99617.34;5299746;27;20033;-77
2021/08/07 07:44:01;;;;;;;4.30;2.17;;;;;;;25.16;70.71;99619.38;5299235;27;20296;-78
2021/08/07 07:46:31;;;;;;;2.47;0.80;;;;;;;26.49;67.64;99616.56;5301837;27;20055;-78
2021/08/07 07:49:02;;;;;;;2.90;0.63;;;;;;;27.31;65.02;99620.84;5295447;27;20023;-79
2021/08/07 07:51:32;;;;;;;4.07;0.55;;;;;;;26.50;66.08;99639.66;5302331;27;20040;-78
2021/08/07 07:54:03;;;;;;;2.53;0.70;;;;;;;28.33;62.38;99634.28;5298998;27;20030;-78
2021/08/07 07:56:33;;;;;;;2.70;0.75;;;;;;;25.69;66.53;99632.97;5291206;28;20028;-78
2021/08/07 07:59:03;;;;;;;3.20;0.80;;;;;;;27.10;64.78;99628.78;5299456;27;20020;-78
2021/08/07 08:01:34;;;;;;;4.97;0.90;;;;;;;27.90;63.11;99627.09;5302069;27;20027;-79
2021/08/07 08:04:04;;;;;;;7.32;0.93;;;;;;;27.06;64.96;99627.44;5301358;27;20280;-79
2021/08/07 08:06:34;;;;;;;2.67;0.60;;;;;;;27.86;63.81;99632.03;5303152;27;20115;-79
2021/08/07 08:09:05;;;;;;;3.42;0.82;;;;;;;29.07;59.57;99629.25;5300762;27;20030;-78
2021/08/07 08:11:36;;;;;;;3.03;0.65;;;;;;;29.76;60.21;99621.00;5301531;27;20370;-79
2021/08/07 08:14:06;;;;;;;2.85;0.60;;;;;;;29.44;59.56;99629.69;5301222;27;20039;-79
2021/08/07 08:16:36;;;;;;;1.77;0.77;;;;;;;27.26;63.89;99636.69;5293774;27;20042;-78
2021/08/07 08:19:07;;;;;;;3.37;0.60;;;;;;;28.18;62.44;99626.22;5293053;27;20027;-79
2021/08/07 08:21:37;;;;;;;2.13;0.65;;;;;;;28.77;60.67;99627.69;5296823;27;20038;-79
2021/08/07 08:24:07;;;;;;;2.30;0.60;;;;;;;27.69;63.68;99625.16;5297592;27;20023;-79
2021/08/07 08:26:41;;;;;;;2.33;0.50;;;;;;;30.24;58.48;99624.59;5292618;27;20422;-79
2021/08/07 08:29:11;;;;;;;3.53;0.60;;;;;;;29.61;60.62;99622.19;5290450;27;20796;-79
2021/08/07 08:31:41;;;;;;;3.17;0.68;;;;;;;30.21;56.87;99616.88;5300731;27;20027;-79
2021/08/07 08:34:12;;;;;;;2.28;0.60;;;;;;;30.83;55.91;99624.50;5301068;27;20019;-79
2021/08/07 08:36:42;;;;;;;3.97;0.70;;;;;;;29.02;59.98;99619.03;5303850;27;20048;-79
2021/08/07 08:39:12;;;;;;;2.90;0.60;;;;;;;28.86;59.79;99621.16;5302506;27;20031;-78
2021/08/07 08:41:43;;;;;;;1.50;0.50;;;;;;;28.74;61.29;99622.69;5305027;27;20083;-78
2021/08/07 08:44:13;;;;;;;4.20;0.70;;;;;;;28.67;60.78;99620.97;5299014;27;20015;-79
2021/08/07 08:46:44;;;;;;;1.98;0.60;;;;;;;27.99;62.41;99618.72;5304123;27;20034;-79
2021/08/07 08:49:19;;;;;;;1.42;0.55;;;;;;;27.68;64.91;99612.72;5299992;27;20533;-78
2021/08/07 08:51:49;;;;;;;3.87;0.63;;;;;;;26.47;66.79;99610.47;5300666;27;20027;-78
2021/08/07 08:54:19;;;;;;;4.30;0.93;;;;;;;25.59;68.52;99613.59;5296269;27;20282;-78
2021/08/07 08:56:50;;;;;;;2.13;0.68;;;;;;;27.04;65.92;99597.28;5290706;28;20305;-78
2021/08/07 08:59:22;;;;;;;3.33;0.70;;;;;;;26.75;65.83;99607.94;5298657;27;20031;-78
2021/08/07 09:01:53;;;;;;;2.30;0.70;;;;;;;27.89;63.67;99602.09;5299799;27;20031;-78
2021/08/07 09:04:23;;;;;;;3.30;0.70;;;;;;;28.23;60.58;99591.53;5299542;27;20043;-78
2021/08/07 09:06:53;;;;;;;2.72;0.70;;;;;;;28.82;62.12;99584.88;5300427;27;20034;-78
2021/08/07 09:09:36;;;;;;;2.95;0.80;;;;;;;27.90;62.30;99593.00;5299166;27;20019;-78
2021/08/07 09:12:07;;;;;;;4.13;0.75;;;;;;;28.60;60.01;99585.09;5298496;27;20046;-78
2021/08/07 09:14:40;;;;;;;0.98;0.60;;;;;;;28.29;61.26;99595.31;5300599;27;20053;-78
2021/08/07 09:17:12;;;;;;;2.45;0.60;;;;;;;27.48;61.44;99600.88;5297228;27;20023;-78
2021/08/07 09:19:42;;;;;;;4.63;0.80;;;;;;;26.95;62.54;99598.38;5287919;27;20032;-78
2021/08/07 09:22:17;;;;;;;3.13;0.60;;;;;;;26.67;61.90;99592.94;5287632;27;20114;-78
2021/08/07 09:25:08;;;;;;;2.42;0.68;;;;;;;25.31;65.81;99597.13;5291145;27;20110;-77
2021/08/07 09:27:49;;;;;;;3.63;0.90;;;;;;;26.29;64.65;99589.34;5289934;27;20031;-78
2021/08/07 09:30:21;;;;;;;2.65;0.77;;;;;;;26.33;66.19;99581.78;5294793;27;20023;-78
2021/08/07 09:33:00;;;;;;;2.17;0.77;;;;;;;27.12;65.91;99583.81;5297274;27;20034;-78
2021/08/07 09:35:34;;;;;;;3.17;0.70;;;;;;;26.48;65.51;99580.00;5298026;27;20030;-78
2021/08/07 09:38:24;;;;;;;4.13;0.77;;;;;;;26.02;66.47;99570.25;5296574;27;20614;-78
2021/08/07 09:40:57;;;;;;;3.38;0.90;;;;;;;26.83;62.39;99573.03;5297453;27;20038;-78
2021/08/07 09:43:48;;;;;;;4.00;0.75;;;;;;;26.00;65.74;99574.97;5295316;27;20026;-78
2021/08/07 09:46:26;;;;;;;2.97;0.77;;;;;;;26.07;67.60;99574.09;5279993;27;20020;-78
2021/08/07 09:48:56;;;;;;;1.40;0.60;;;;;;;26.41;66.76;99565.63;5285168;27;20023;-78
2021/08/07 09:51:33;;;;;;;2.70;0.80;;;;;;;25.78;67.25;99568.50;5291953;27;20425;-78
2021/08/07 09:54:09;;;;;;;2.40;0.82;;;;;;;26.75;66.53;99558.84;5293678;27;20087;-78
2021/08/07 09:57:00;;;;;;;1.30;0.70;;;;;;;26.11;66.25;99545.06;5284648;28;20050;-78
2021/08/07 09:59:33;;;;;;;2.72;0.70;;;;;;;26.18;65.23;99546.88;5292912;27;20520;-78
2021/08/07 10:02:22;;;;;;;3.97;0.88;;;;;;;26.19;66.62;99559.25;5292392;27;20032;-78
2021/08/07 10:04:53;;;;;;;2.58;0.80;;;;;;;26.53;66.59;99548.16;5290647;27;20023;-78
2021/08/07 10:07:24;;;;;;;4.00;0.88;;;;;;;25.56;67.31;99549.69;5288930;27;20030;-78
2021/08/07 10:09:55;;;;;;;3.25;0.80;;;;;;;25.98;67.35;99550.19;5295290;27;20051;-78
2021/08/07 10:12:26;;;;;;;4.13;0.82;;;;;;;25.35;66.51;99541.44;5292210;27;20058;-78
2021/08/07 10:14:56;;;;;;;4.53;0.88;;;;;;;25.15;67.73;99548.97;5294959;27;20364;-78
2021/08/07 10:17:26;;;;;;;2.27;0.70;;;;;;;25.00;69.32;99555.22;5295151;27;20016;-78
2021/08/07 10:19:58;;;;;;;3.40;0.80;;;;;;;25.31;68.06;99537.44;5297791;27;20373;-77
2021/08/07 10:22:29;;;;;;;1.73;0.68;;;;;;;25.25;68.52;99547.00;5295940;27;20075;-77
2021/08/07 10:25:04;;;;;;;2.05;0.65;;;;;;;25.49;68.64;99538.03;5289406;27;20481;-78
2021/08/07 10:27:35;;;;;;;4.20;0.90;;;;;;;26.08;65.75;99537.41;5287458;27;20026;-78
2021/08/07 10:30:11;;;;;;;2.63;0.80;;;;;;;26.41;65.70;99538.81;5295868;27;20037;-78
2021/08/07 10:32:44;;;;;;;1.55;0.50;;;;;;;25.97;66.32;99540.50;5297442;27;20523;-78
2021/08/07 10:35:14;;;;;;;3.00;0.80;;;;;;;25.87;67.67;99535.34;5291284;27;20330;-78
2021/08/07 10:37:45;;;;;;;3.58;0.80;;;;;;;24.92;66.91;99536.50;5298133;27;20281;-78
2021/08/07 10:40:15;;;;;;;2.80;0.70;;;;;;;25.55;67.48;99531.97;5294745;27;20495;-78
2021/08/07 10:42:49;;;;;;;1.77;0.55;;;;;;;25.65;66.08;99537.97;5297572;27;20084;-78
2021/08/07 10:45:20;;;;;;;3.30;0.70;;;;;;;25.15;66.31;99535.59;5295024;27;20106;-78
2021/08/07 10:47:51;;;;;;;2.95;0.57;;;;;;;25.78;65.95;99525.66;5297825;27;20034;-78
2021/08/07 10:50:25;;;;;;;4.38;0.80;;;;;;;25.74;67.53;99534.22;5294073;27;20028;-78
2021/08/07 10:52:58;;;;;;;2.83;0.90;;;;;;;25.70;65.27;99522.19;5297828;27;20031;-78
2021/08/07 10:55:54;;;;;;;4.97;0.70;;;;;;;25.72;64.41;99513.00;5289807;27;20390;-79
2021/08/07 10:58:31;;;;;;;4.32;1.00;;;;;;;26.15;65.78;99523.13;5293799;27;20019;-78
2021/08/07 11:04:02;;;;;;;2.45;0.70;;;;;;;25.46;67.12;99522.34;5292337;27;20034;-78
2021/08/07 11:06:38;;;;;;;3.22;0.93;;;;;;;25.65;66.25;99521.91;5296055;27;20030;-78
2021/08/07 11:09:15;;;;;;;8.15;1.10;;;;;;;24.95;67.09;99528.97;5296412;27;20048;-78
2021/08/07 11:11:46;;;;;;;4.13;0.70;;;;;;;24.58;68.82;99530.53;5291520;27;20019;-78
2021/08/07 11:14:24;;;;;;;3.20;0.80;;;;;;;24.64;68.34;99518.34;5294691;27;20133;-78
2021/08/07 11:17:07;;;;;;;3.53;0.90;;;;;;;24.43;70.88;99526.84;5295307;28;20054;-78
2021/08/07 11:20:00;;;;;;;2.63;0.70;;;;;;;24.63;69.90;99509.50;5290672;28;20425;-78
2021/08/07 11:22:31;;;;;;;3.05;0.73;;;;;;;24.60;67.61;99509.84;5295520;27;20043;-78
2021/08/07 11:25:06;;;;;;;4.03;0.90;;;;;;;24.71;71.50;99493.44;5290340;28;20111;-78
2021/08/07 11:30:30;;;;;;;4.30;0.90;;;;;;;25.23;68.24;99491.97;5293486;27;20280;-78
2021/08/07 11:33:01;;;;;;;5.28;1.13;;;;;;;25.21;68.91;99489.50;5297185;27;20035;-79
2021/08/07 11:35:46;;;;;;;6.70;0.90;;;;;;;25.24;66.47;99491.81;5299751;28;20111;-78
2021/08/07 11:38:25;;;;;;;4.93;0.95;;;;;;;25.47;67.82;99490.03;5293770;28;20479;-79
2021/08/07 11:41:08;;;;;;;2.03;0.70;;;;;;;25.50;67.46;99476.28;5298684;28;20035;-77
2021/08/07 11:43:40;;;;;;;6.18;0.90;;;;;;;24.99;64.47;99468.78;5297937;27;20508;-77
2021/08/07 11:46:16;;;;;;;2.03;0.70;;;;;;;24.96;66.70;99468.31;5300372;28;20020;-77
2021/08/07 11:48:49;;;;;;;4.00;0.90;;;;;;;25.05;67.81;99464.59;5284409;28;20016;-76
2021/08/07 11:51:27;;;;;;;3.85;1.00;;;;;;;25.56;65.10;99458.69;5293092;28;20380;-78
2021/08/07 11:53:57;;;;;;;2.28;0.70;;;;;;;25.79;68.06;99462.22;5295066;27;20030;-78
2021/08/07 11:56:34;;;;;;;2.75;0.90;;;;;;;25.82;65.62;99454.69;5287199;28;20042;-78
2021/08/07 11:59:05;;;;;;;4.30;0.90;;;;;;;25.92;65.52;99452.66;5295788;27;20024;-79